Albion, ME (04910)

1:04 PM EST on February 11, 2016 (GMT -0500)
APRSWXNET | | Change Station
CLOSE
Current Station
Personal Weather Station
Location: North Vassalboro, ME
Elevation: 354 ft
Nearby Weather Stations
Active Advisory: Special Statement

Elev 354 ft 44.50 °N, 69.60 °W | Updated 35 minutes ago

Overcast
Overcast
28 °F
Feels Like 28 °F
N
2
Wind Variable Wind from NW
Gusts 8.0 mph

Today
High -- | Low -- °F
--% Chance of Precip.
Yesterday
High -- | Low -- °F
Precip. -- in
Pressure 29.69 in
Visibility 10.0 miles
Clouds Mostly Cloudy 4000 ft
Overcast 5000 ft
Windchill 28 °F
Dew Point 17 °F
Humidity 63%
Rainfall in
Snow Depth Not available.
6:44 AM 5:00 PM
Waxing Crescent, 13% visible
METAR KWVL 111756Z AUTO 34008KT 10SM BKN040 OVC050 M01/M11 A2957 RMK AO2 SNE09 SLP053 P0000 60000 T10111106 10006 21067 58011 FZRANO
Pressure 29.69 in
Visibility 10.0 miles
Clouds Mostly Cloudy 4000 ft
Overcast 5000 ft
Windchill 28 °F
Dew Point 17 °F
Humidity 63%
Rainfall in
Snow Depth Not available.
6:44 AM 5:00 PM
Waxing Crescent, 13% visible
METAR KWVL 111756Z AUTO 34008KT 10SM BKN040 OVC050 M01/M11 A2957 RMK AO2 SNE09 SLP053 P0000 60000 T10111106 10006 21067 58011 FZRANO

10-Day Weather Forecast

Almanac

Astronomy

Feb. 11, 2016 Rise Set
Actual Time
Civil Twilight
Nautical Twilight
Astronomical Twilight
Moon
Length of Visible Light
Length of Day
Tomorrow will be .
, % of the Moon is Illuminated

Today's Extremes

State Highs State Lows

Community

WunderPhotos

Upload Photos

1,892,121 photos uploaded!

WunderBlog® & News

Nearby

Air Quality

  Air Quality AQ Index Pollutant
Not available.

Snow Depth

Station Depth Elevation

Earthquake Activity

City Distance Mag. Time & Date
Minimum magnitude displayed is 2.5.

Coastal Water Temperatures

Place Temperature

Stations

Nearby Weather Stations

Station Location Temp. Windchill Dew Point Humidity Wind Precip. Elev Updated Type
                   

Watches & Warnings

Special Statement
Issued: 12:02 PM EST Feb. 11, 2016 – National Weather Service

... Scattered snow showers this afternoon could impact travel...

Scattered snow showers will develop ahead of a cold front and
move from the foothills of Maine to the coast. Although the snow
showers will not last very long they could become briefly
intense... lowering visibilities and producing a quick coating to
half inch of snow on the roads. Use caution if traveling this
afternoon.


Cempa


1202 PM EST Thu Feb 11 2016

... Scattered snow showers this afternoon could impact travel...

Scattered snow showers will develop ahead of a cold front and
move from the foothills of Maine to the coast. Although the snow
showers will not last very long they could become briefly
intense... lowering visibilities and producing a quick coating to
half inch of snow on the roads. Use caution if traveling this
afternoon.


Cempa